Terminal Aerodrome Forecast
Issued by NWS Sterling, VA

Current Version | Previous Version | Text Only | Print | Product List | Glossary Off
Versions: 1 2 3 4 5 6 7 8 9 10 11 12 13 14 15 16 17 18 19 20 21 22 23 24 25 26

437
FTUS41 KLWX 291730
TAFDCA
TAF
KDCA 291730Z 2918/3018 28005KT P6SM BKN040
     FM292000 28005KT P6SM SCT040
     FM300000 36005KT P6SM SCT050
     FM300200 09005KT P6SM BKN045
     FM300500 11005KT 4SM BR BKN008
     FM300900 09005KT 3SM BR OVC003
     FM301500 14005KT P6SM BKN010
     FM301700 15006KT P6SM BKN020=

USA.gov is the U.S. government's official web portal to all federal, state and local government web resources and services.